Time;durP1;ratioP1;P1;durP2;ratioP2;P2;SDS_P1;SDS_P2;PMS_P1;PMS_P2;Temp;Humidity;BMP_temperature;BMP_pressure;BME280_temperature;BME280_humidity;BME280_pressure;Samples;Min_cycle;Max_cycle;Signal;HPM_P1;HPM_P2
2024/02/01 02:01:53;;;;;;;;;13.67;13.00;;;;;;;;6223624;22;46025;-81
2024/02/01 02:04:19;;;;;;;;;10.00;10.00;;;;;;;;6246479;22;45748;-81
2024/02/01 02:06:44;;;;;;;;;13.33;12.67;;;;;;;;6249906;22;46027;-81
2024/02/01 02:09:12;;;;;;;;;7.00;7.00;;;;;;;;6278633;22;45482;-82
2024/02/01 02:11:44;;;;;;;;;12.00;11.00;;;;;;;;6276067;22;45327;-81
2024/02/01 02:14:10;;;;;;;;;13.00;12.00;;;;;;;;6278192;22;45255;-81
2024/02/01 02:16:37;;;;;;;;;17.00;11.00;;;;;;;;6250401;22;47491;-81
2024/02/01 02:19:09;;;;;;;;;12.33;11.33;;;;;;;;6250750;22;44766;-81
2024/02/01 02:21:36;;;;;;;;;10.33;9.67;;;;;;;;6251022;22;45431;-81
2024/02/01 02:24:01;;;;;;;;;18.33;15.33;;;;;;;;6277907;22;45756;-82
2024/02/01 02:26:26;;;;;;;;;15.67;14.33;;;;;;;;6277432;22;45216;-82
2024/02/01 02:28:51;;;;;;;;;14.33;13.33;;;;;;;;6277418;22;45390;-81
2024/02/01 02:31:17;;;;;;;;;11.33;11.33;;;;;;;;6249662;22;44873;-81
2024/02/01 02:33:42;;;;;;;;;17.67;13.00;;;;;;;;6249901;22;45188;-82
2024/02/01 02:36:49;;;;;;;;;14.67;12.00;;;;;;;;6227167;22;46681;-82
2024/02/01 02:39:21;;;;;;;;;8.00;8.00;;;;;;;;6218794;22;45339;-81
2024/02/01 02:41:46;;;;;;;;;13.67;13.00;;;;;;;;6219286;22;45256;-81
2024/02/01 02:44:13;;;;;;;;;9.00;9.00;;;;;;;;6219912;22;45229;-81
2024/02/01 02:46:38;;;;;;;;;12.67;11.00;;;;;;;;6247861;22;45280;-81
2024/02/01 02:52:06;;;;;;;;;13.67;12.67;;;;;;;;6248022;22;44819;-81
2024/02/01 02:54:33;;;;;;;;;10.33;9.33;;;;;;;;6246603;22;45341;-81
2024/02/01 02:56:58;;;;;;;;;15.67;14.00;;;;;;;;6246608;22;45603;-81
2024/02/01 02:59:25;;;;;;;;;14.00;13.00;;;;;;;;6243989;22;45364;-82
2024/02/01 03:01:50;;;;;;;;;11.00;11.00;;;;;;;;6217371;22;45308;-81
2024/02/01 03:04:16;;;;;;;;;15.33;11.00;;;;;;;;6220445;22;45506;-82
2024/02/01 03:06:42;;;;;;;;;15.67;13.67;;;;;;;;6219828;22;49310;-81
2024/02/01 03:09:16;;;;;;;;;11.00;11.00;;;;;;;;6221567;22;45341;-81
2024/02/01 03:11:41;;;;;;;;;15.33;12.00;;;;;;;;6222991;22;45332;-81
2024/02/01 03:14:11;;;;;;;;;15.33;12.33;;;;;;;;6248574;22;45408;-81
2024/02/01 03:16:36;;;;;;;;;14.00;14.00;;;;;;;;6223620;22;47151;-81
2024/02/01 03:19:11;;;;;;;;;16.33;14.33;;;;;;;;6220701;22;45885;-81
2024/02/01 03:21:36;;;;;;;;;11.00;11.00;;;;;;;;6220710;22;45445;-81
2024/02/01 03:24:02;;;;;;;;;16.33;15.33;;;;;;;;6220913;22;45623;-81
2024/02/01 03:26:34;;;;;;;;;11.67;11.67;;;;;;;;6221551;22;47126;-82
2024/02/01 03:28:59;;;;;;;;;13.33;13.33;;;;;;;;6220481;22;45427;-83
2024/02/01 03:31:33;;;;;;;;;11.67;11.67;;;;;;;;6220211;22;45404;-82
2024/02/01 03:33:59;;;;;;;;;16.33;13.33;;;;;;;;6219332;22;45308;-82
2024/02/01 03:36:25;;;;;;;;;11.33;11.33;;;;;;;;6217873;22;46061;-81
2024/02/01 03:38:50;;;;;;;;;14.33;12.67;;;;;;;;6244240;22;45453;-80
2024/02/01 03:41:15;;;;;;;;;13.67;13.67;;;;;;;;6216124;22;45186;-81
2024/02/01 03:43:40;;;;;;;;;7.67;7.67;;;;;;;;6217685;22;45730;-81
2024/02/01 03:46:07;;;;;;;;;13.00;13.00;;;;;;;;6218401;22;47264;-83
2024/02/01 03:48:32;;;;;;;;;15.00;13.67;;;;;;;;6215485;22;45633;-82
2024/02/01 03:50:58;;;;;;;;;14.67;14.67;;;;;;;;6244058;22;45315;-82
2024/02/01 03:53:23;;;;;;;;;12.00;11.00;;;;;;;;6217150;22;45353;-82
2024/02/01 03:55:51;;;;;;;;;14.00;10.00;;;;;;;;6245565;22;46219;-82
2024/02/01 03:58:21;;;;;;;;;13.33;12.67;;;;;;;;6218492;22;45435;-82
2024/02/01 04:00:50;;;;;;;;;15.67;12.33;;;;;;;;6246093;22;45403;-81
2024/02/01 04:03:15;;;;;;;;;11.00;11.00;;;;;;;;6246659;22;45359;-81
2024/02/01 04:05:41;;;;;;;;;11.00;11.00;;;;;;;;6218255;22;46604;-81
2024/02/01 04:08:07;;;;;;;;;16.00;14.00;;;;;;;;6246541;22;45788;-81
2024/02/01 04:10:34;;;;;;;;;10.00;10.00;;;;;;;;6219458;22;44884;-82
2024/02/01 04:12:59;;;;;;;;;14.33;12.33;;;;;;;;6218245;22;45452;-82
2024/02/01 04:15:24;;;;;;;;;14.00;14.00;;;;;;;;6245367;22;45412;-82
2024/02/01 04:17:50;;;;;;;;;10.00;9.00;;;;;;;;6240251;22;45351;-81
2024/02/01 04:20:16;;;;;;;;;11.67;11.67;;;;;;;;6219120;22;45320;-81
2024/02/01 04:22:42;;;;;;;;;11.67;11.67;;;;;;;;6219222;22;45304;-82
2024/02/01 04:25:08;;;;;;;;;10.67;10.67;;;;;;;;6218555;22;46879;-81
2024/02/01 04:27:33;;;;;;;;;9.67;8.33;;;;;;;;6219091;22;45334;-81
2024/02/01 04:29:59;;;;;;;;;16.33;11.33;;;;;;;;6241772;22;44822;-82
2024/02/01 04:32:24;;;;;;;;;11.33;11.33;;;;;;;;6220144;22;45310;-81
2024/02/01 04:34:49;;;;;;;;;17.00;13.00;;;;;;;;6248140;22;45366;-82
2024/02/01 04:37:14;;;;;;;;;11.33;11.00;;;;;;;;6218324;22;45332;-81
2024/02/01 04:39:40;;;;;;;;;13.33;11.00;;;;;;;;6218341;22;45224;-81
2024/02/01 04:42:14;;;;;;;;;14.00;14.00;;;;;;;;6246459;22;45296;-81
2024/02/01 04:44:48;;;;;;;;;8.00;7.00;;;;;;;;6217982;22;47554;-81
2024/02/01 04:47:13;;;;;;;;;7.67;7.67;;;;;;;;6245421;22;44852;-81
2024/02/01 04:49:38;;;;;;;;;11.33;11.33;;;;;;;;6245677;22;45281;-81
2024/02/01 04:52:04;;;;;;;;;16.00;12.00;;;;;;;;6244793;22;45628;-82
2024/02/01 04:54:29;;;;;;;;;12.00;10.67;;;;;;;;6244387;22;44982;-81
2024/02/01 04:56:55;;;;;;;;;12.00;12.00;;;;;;;;6219522;22;44860;-81
2024/02/01 04:59:21;;;;;;;;;11.33;11.33;;;;;;;;6246397;22;45598;-82
2024/02/01 05:01:46;;;;;;;;;11.00;10.67;;;;;;;;6245037;22;44948;-82
2024/02/01 05:04:13;;;;;;;;;16.33;12.67;;;;;;;;6218373;22;48184;-81
2024/02/01 05:06:41;;;;;;;;;10.33;10.00;;;;;;;;6246116;22;45362;-82
2024/02/01 05:09:23;;;;;;;;;12.00;11.00;;;;;;;;6218729;22;45417;-81
2024/02/01 05:11:52;;;;;;;;;10.67;10.67;;;;;;;;6220853;22;45391;-82
2024/02/01 05:14:19;;;;;;;;;14.00;11.00;;;;;;;;6219296;22;47191;-81
2024/02/01 05:16:44;;;;;;;;;8.67;8.67;;;;;;;;6245759;22;45321;-82
2024/02/01 05:19:10;;;;;;;;;15.00;15.00;;;;;;;;6246270;22;45273;-82
2024/02/01 05:21:35;;;;;;;;;11.00;11.00;;;;;;;;6246786;22;45346;-82
2024/02/01 05:24:01;;;;;;;;;13.67;13.33;;;;;;;;6246077;22;45242;-82
2024/02/01 05:26:26;;;;;;;;;14.67;13.00;;;;;;;;6217393;22;45272;-82
2024/02/01 05:28:52;;;;;;;;;14.67;12.00;;;;;;;;6247234;22;45253;-82
2024/02/01 05:31:19;;;;;;;;;6.33;6.33;;;;;;;;6245310;22;45297;-82
2024/02/01 05:33:44;;;;;;;;;14.00;11.00;;;;;;;;6217553;22;47092;-81
2024/02/01 05:36:10;;;;;;;;;12.33;11.33;;;;;;;;6219665;22;45759;-81
2024/02/01 05:38:36;;;;;;;;;13.33;13.33;;;;;;;;6247233;22;45483;-81
2024/02/01 05:41:04;;;;;;;;;11.67;10.00;;;;;;;;6219606;22;45228;-82
2024/02/01 05:43:29;;;;;;;;;13.33;13.33;;;;;;;;6218765;22;47157;-82
2024/02/01 05:45:54;;;;;;;;;10.67;10.67;;;;;;;;6219347;22;46207;-81
2024/02/01 05:48:20;;;;;;;;;17.67;15.33;;;;;;;;6218137;22;45325;-81
2024/02/01 05:50:46;;;;;;;;;14.67;11.67;;;;;;;;6219766;22;45186;-81
2024/02/01 05:53:11;;;;;;;;;9.33;9.00;;;;;;;;6219999;22;45240;-81
2024/02/01 05:55:36;;;;;;;;;16.00;13.33;;;;;;;;6248234;22;45332;-81
2024/02/01 05:58:05;;;;;;;;;17.00;15.33;;;;;;;;6221458;22;45441;-81
2024/02/01 07:22:05;;;;;;;;;20.00;18.00;;;;;;;;6310206;22;45378;-85
2024/02/01 08:00:19;;;;;;;;;12.00;12.00;;;;;;;;6312340;22;45826;-85
2024/02/01 08:02:49;;;;;;;;;10.67;10.67;;;;;;;;6282554;22;45208;-84
2024/02/01 08:08:05;;;;;;;;;11.67;11.67;;;;;;;;6312504;22;45299;-85
2024/02/01 08:10:30;;;;;;;;;13.33;11.67;;;;;;;;6285950;22;47027;-85
2024/02/01 08:13:04;;;;;;;;;11.00;10.00;;;;;;;;6311085;22;45367;-86
2024/02/01 08:15:33;;;;;;;;;13.00;10.00;;;;;;;;6312192;22;45298;-84
2024/02/01 08:17:58;;;;;;;;;13.33;12.67;;;;;;;;6284660;22;44946;-84
2024/02/01 08:20:24;;;;;;;;;12.67;11.00;;;;;;;;6280479;22;46963;-85
2024/02/01 08:22:49;;;;;;;;;15.00;12.67;;;;;;;;6288252;22;45411;-83
2024/02/01 08:25:16;;;;;;;;;15.00;13.33;;;;;;;;6284744;22;45403;-84
2024/02/01 08:27:49;;;;;;;;;11.00;10.00;;;;;;;;6285213;22;45363;-84
2024/02/01 08:30:19;;;;;;;;;13.33;11.33;;;;;;;;6310994;22;45465;-84
2024/02/01 08:32:44;;;;;;;;;14.00;9.67;;;;;;;;6284234;22;45130;-83
2024/02/01 08:35:20;;;;;;;;;10.67;10.00;;;;;;;;6306296;22;45275;-83
2024/02/01 08:37:48;;;;;;;;;11.00;10.00;;;;;;;;6315197;22;45256;-84
2024/02/01 08:40:16;;;;;;;;;15.00;10.33;;;;;;;;6313334;22;45958;-85
2024/02/01 08:43:44;;;;;;;;;10.67;10.00;;;;;;;;6290847;22;45383;-84
2024/02/01 08:49:39;;;;;;;;;13.33;13.00;;;;;;;;6258137;22;44934;-84
2024/02/01 08:52:15;;;;;;;;;7.67;7.67;;;;;;;;6257299;22;46841;-84
2024/02/01 08:54:42;;;;;;;;;11.33;11.33;;;;;;;;6275796;22;44800;-84
2024/02/01 08:57:13;;;;;;;;;13.33;11.00;;;;;;;;6277186;22;45315;-84
2024/02/01 08:59:47;;;;;;;;;11.67;10.00;;;;;;;;6248427;22;45456;-85
2024/02/01 09:02:15;;;;;;;;;8.67;8.67;;;;;;;;6248719;22;46836;-85
2024/02/01 09:04:53;;;;;;;;;;;;;;;;;;;;;
2024/02/01 09:07:34;;;;;;;;;8.00;8.00;;;;;;;;6265724;22;69919;-84
2024/02/01 09:10:05;;;;;;;;;9.67;9.67;;;;;;;;6276553;22;45430;-83
2024/02/01 09:12:49;;;;;;;;;13.00;12.00;;;;;;;;6276337;22;45618;-83
2024/02/01 09:15:15;;;;;;;;;8.67;8.67;;;;;;;;6275394;22;45319;-83
2024/02/01 09:17:40;;;;;;;;;12.00;10.33;;;;;;;;6252221;22;45679;-83
2024/02/01 09:20:17;;;;;;;;;11.00;11.00;;;;;;;;6249812;22;45296;-84
2024/02/01 09:22:43;;;;;;;;;10.33;10.33;;;;;;;;6278876;22;46169;-84
2024/02/01 09:25:31;;;;;;;;;9.67;9.00;;;;;;;;6252777;22;45588;-83
2024/02/01 09:28:00;;;;;;;;;10.00;8.00;;;;;;;;6285180;22;45394;-84
2024/02/01 09:31:18;;;;;;;;;10.33;10.00;;;;;;;;6283174;22;45272;-82
2024/02/01 09:36:41;;;;;;;;;10.67;9.00;;;;;;;;6211721;22;45487;-83
2024/02/01 09:39:11;;;;;;;;;16.00;10.00;;;;;;;;6213473;22;45565;-84
2024/02/01 09:41:37;;;;;;;;;5.00;5.00;;;;;;;;6189346;22;45651;-84
2024/02/01 09:44:06;;;;;;;;;6.00;6.00;;;;;;;;6189433;22;45504;-84
2024/02/01 09:47:04;;;;;;;;;10.33;10.33;;;;;;;;6193087;22;45486;-84
2024/02/01 09:49:27;;;;;;;;;8.33;8.00;;;;;;;;6214951;22;45487;-84
2024/02/01 09:51:54;;;;;;;;;6.33;5.67;;;;;;;;6217075;22;45349;-85
2024/02/01 09:54:28;;;;;;;;;10.33;8.33;;;;;;;;6199291;22;47087;-84
2024/02/01 09:57:05;;;;;;;;;;;;;;;;;;;;;
2024/02/01 09:59:37;;;;;;;;;6.00;6.00;;;;;;;;6230642;22;69139;-85
2024/02/01 10:02:04;;;;;;;;;5.67;5.00;;;;;;;;6246902;22;45385;-84
2024/02/01 10:04:33;;;;;;;;;4.75;4.00;;;;;;;;6245468;22;46583;-84
2024/02/01 10:07:15;;;;;;;;;;;;;;;;;;;;;
2024/02/01 10:10:08;;;;;;;;;;;;;;;;;;;;;
2024/02/01 10:15:59;;;;;;;;;;;;;;;;;;;;;
2024/02/01 10:18:43;;;;;;;;;;;;;;;;;;;;;
2024/02/01 10:21:25;;;;;;;;;9.00;5.33;;;;;;;;6093760;23;68577;-85
2024/02/01 10:24:10;;;;;;;;;8.33;5.67;;;;;;;;6069405;23;45449;-85
2024/02/01 11:54:39;;;;;;;;;12.00;9.33;;;;;;;;6192329;22;46365;-83
2024/02/01 11:59:55;;;;;;;;;6.67;6.67;;;;;;;;6295155;22;45543;-83
2024/02/01 12:02:22;;;;;;;;;5.33;5.33;;;;;;;;6285040;22;45390;-83
2024/02/01 12:08:10;;;;;;;;;10.67;6.33;;;;;;;;6341038;22;45415;-85
2024/02/01 12:11:14;;;;;;;;;;;;;;;;;;;;;
2024/02/01 12:13:47;;;;;;;;;6.00;6.00;;;;;;;;6183324;23;65375;-84
2024/02/01 12:16:30;;;;;;;;;6.33;5.33;;;;;;;;6187358;23;45539;-86
2024/02/01 12:19:33;;;;;;;;;6.67;5.67;;;;;;;;6165588;23;44849;-88
2024/02/01 12:22:12;;;;;;;;;3.67;3.67;;;;;;;;6160237;23;45407;-84
2024/02/01 12:25:06;;;;;;;;;;;;;;;;;;;;;
2024/02/01 12:27:27;;;;;;;;;9.00;6.00;;;;;;;;6165363;23;46349;-83
2024/02/01 12:36:02;;;;;;;;;4.00;4.00;;;;;;;;6185503;22;45512;-84
2024/02/01 12:38:40;;;;;;;;;5.00;5.00;;;;;;;;6158917;23;46935;-85
2024/02/01 12:41:10;;;;;;;;;6.00;5.67;;;;;;;;6197744;22;45323;-81
2024/02/01 12:43:36;;;;;;;;;5.00;5.00;;;;;;;;6196305;22;44958;-82
2024/02/01 12:46:04;;;;;;;;;3.25;3.25;;;;;;;;6174499;23;45434;-83
2024/02/01 12:48:30;;;;;;;;;6.00;6.00;;;;;;;;6176124;22;45096;-82
2024/02/01 12:50:59;;;;;;;;;4.33;4.33;;;;;;;;6284179;22;45034;-82
2024/02/01 12:53:39;;;;;;;;;6.33;4.67;;;;;;;;6330606;22;44901;-83
2024/02/01 12:56:09;;;;;;;;;5.33;4.33;;;;;;;;6351425;22;45120;-83
2024/02/01 12:58:39;;;;;;;;;4.33;4.33;;;;;;;;6329278;22;46649;-82
2024/02/01 13:04:18;;;;;;;;;1.00;1.00;;;;;;;;6326856;22;44876;-83
2024/02/01 13:06:44;;;;;;;;;5.33;5.33;;;;;;;;6327776;22;44847;-84
2024/02/01 13:09:28;;;;;;;;;4.00;3.75;;;;;;;;6322870;22;46032;-85
2024/02/01 13:14:31;;;;;;;;;4.00;2.00;;;;;;;;6298714;22;45276;-81
2024/02/01 13:16:57;;;;;;;;;4.00;4.00;;;;;;;;6313868;22;45419;-82
2024/02/01 13:19:30;;;;;;;;;4.00;4.00;;;;;;;;6297688;22;45961;-81
2024/02/01 13:21:56;;;;;;;;;9.33;8.00;;;;;;;;6315495;22;45300;-82
2024/02/01 13:24:22;;;;;;;;;5.00;5.00;;;;;;;;6319276;22;44820;-82
2024/02/01 13:26:49;;;;;;;;;8.00;8.00;;;;;;;;6297697;22;44739;-83
2024/02/01 13:29:14;;;;;;;;;10.00;8.33;;;;;;;;6319891;22;45424;-82
2024/02/01 13:32:01;;;;;;;;;6.33;4.00;;;;;;;;6321475;22;44845;-81
2024/02/01 13:34:26;;;;;;;;;7.00;6.67;;;;;;;;6292060;22;45404;-82
2024/02/01 13:36:52;;;;;;;;;6.33;6.33;;;;;;;;6328964;22;45081;-84
2024/02/01 13:39:21;;;;;;;;;5.67;5.67;;;;;;;;6306851;22;47088;-83
2024/02/01 13:41:51;;;;;;;;;10.00;7.67;;;;;;;;6359448;22;44768;-84
2024/02/01 13:44:32;;;;;;;;;10.33;10.00;;;;;;;;6331334;22;44869;-83
2024/02/01 13:50:15;;;;;;;;;5.33;5.00;;;;;;;;6320148;22;46949;-84
2024/02/01 13:52:44;;;;;;;;;9.33;8.33;;;;;;;;6207067;22;44773;-82
2024/02/01 13:55:11;;;;;;;;;7.33;6.00;;;;;;;;6305677;22;45159;-83
2024/02/01 13:57:40;;;;;;;;;7.00;7.00;;;;;;;;6304825;22;44781;-82
2024/02/01 14:03:09;;;;;;;;;6.00;3.50;;;;;;;;6198775;22;44761;-84
2024/02/01 14:05:36;;;;;;;;;6.00;6.00;;;;;;;;6305265;22;44855;-83
2024/02/01 14:08:02;;;;;;;;;10.00;8.67;;;;;;;;6301458;22;44948;-83
2024/02/01 14:10:33;;;;;;;;;8.33;7.33;;;;;;;;6307201;22;46585;-83
2024/02/01 14:13:01;;;;;;;;;9.33;9.33;;;;;;;;6307321;22;44857;-84
2024/02/01 14:15:36;;;;;;;;;13.00;11.33;;;;;;;;6304771;22;44858;-82
2024/02/01 14:36:07;;;;;;;;;11.33;10.33;;;;;;;;6248497;22;46187;-83
2024/02/01 14:38:34;;;;;;;;;18.67;15.00;;;;;;;;6303332;22;44784;-82
2024/02/01 14:41:00;;;;;;;;;16.67;14.00;;;;;;;;6304123;22;47232;-84
2024/02/01 14:43:25;;;;;;;;;13.33;12.67;;;;;;;;6330972;22;45211;-83
2024/02/01 14:45:52;;;;;;;;;14.00;11.00;;;;;;;;6239783;22;46157;-83
2024/02/01 14:48:18;;;;;;;;;14.00;12.00;;;;;;;;6319124;22;46249;-82
2024/02/01 14:50:43;;;;;;;;;11.00;10.67;;;;;;;;6304082;22;47247;-82
2024/02/01 14:55:44;;;;;;;;;12.67;12.67;;;;;;;;6247405;22;45994;-82
2024/02/01 14:58:12;;;;;;;;;10.67;10.67;;;;;;;;6304050;22;45398;-84
2024/02/01 15:05:49;;;;;;;;;12.67;12.67;;;;;;;;6276167;22;45998;-83
2024/02/01 15:16:04;;;;;;;;;11.00;11.00;;;;;;;;6239627;22;47058;-82
2024/02/01 15:21:11;;;;;;;;;11.33;11.00;;;;;;;;6293887;22;45918;-83
2024/02/01 15:31:22;;;;;;;;;13.00;11.00;;;;;;;;6321179;22;46478;-82
2024/02/01 15:33:52;;;;;;;;;9.67;9.00;;;;;;;;6297317;22;44801;-82
2024/02/01 15:36:19;;;;;;;;;7.00;6.00;;;;;;;;6293770;22;44947;-82
2024/02/01 15:38:53;;;;;;;;;10.67;8.00;;;;;;;;6292905;22;44786;-80
2024/02/01 15:41:19;;;;;;;;;6.67;6.67;;;;;;;;6294239;22;47279;-81
2024/02/01 15:43:45;;;;;;;;;9.33;9.33;;;;;;;;6293112;22;45355;-81
2024/02/01 15:46:11;;;;;;;;;11.33;8.00;;;;;;;;6268963;22;44757;-82
2024/02/01 15:48:38;;;;;;;;;10.67;10.00;;;;;;;;6328935;22;45224;-84
2024/02/01 15:51:03;;;;;;;;;6.33;6.33;;;;;;;;6198223;22;46499;-82
2024/02/01 15:53:30;;;;;;;;;9.00;7.33;;;;;;;;6242482;22;44706;-83
2024/02/01 15:55:57;;;;;;;;;11.33;11.33;;;;;;;;6296746;22;44843;-83
2024/02/01 15:58:22;;;;;;;;;9.00;5.67;;;;;;;;6294602;22;44915;-82
2024/02/01 16:00:48;;;;;;;;;9.33;9.00;;;;;;;;6264632;22;47408;-82
2024/02/01 16:03:13;;;;;;;;;8.33;6.00;;;;;;;;6268000;22;44713;-83
2024/02/01 16:05:54;;;;;;;;;8.00;8.00;;;;;;;;6297936;22;44728;-82
2024/02/01 16:08:20;;;;;;;;;7.67;7.67;;;;;;;;6298113;22;44851;-83
2024/02/01 16:10:46;;;;;;;;;6.00;4.00;;;;;;;;6293949;22;45036;-82
2024/02/01 16:13:12;;;;;;;;;7.67;6.00;;;;;;;;6303499;22;45257;-85
2024/02/01 16:15:40;;;;;;;;;6.67;6.33;;;;;;;;6275090;22;44709;-83
2024/02/01 16:18:13;;;;;;;;;9.33;9.33;;;;;;;;6301580;22;44950;-84
2024/02/01 16:20:42;;;;;;;;;10.67;10.00;;;;;;;;6302917;22;45249;-82
2024/02/01 16:23:09;;;;;;;;;7.67;7.67;;;;;;;;6328668;22;44887;-82
2024/02/01 16:25:35;;;;;;;;;13.00;10.67;;;;;;;;6325496;22;44771;-83
2024/02/01 16:28:25;;;;;;;;;8.33;8.00;;;;;;;;6312023;22;45264;-84
2024/02/01 16:30:54;;;;;;;;;10.33;9.00;;;;;;;;6311495;22;45342;-84
2024/02/01 16:33:20;;;;;;;;;5.00;5.00;;;;;;;;6312639;22;45372;-83
2024/02/01 16:35:48;;;;;;;;;6.00;6.00;;;;;;;;6284093;22;45423;-83
2024/02/01 16:38:23;;;;;;;;;10.00;10.00;;;;;;;;6308238;22;45243;-84
2024/02/01 16:40:49;;;;;;;;;9.33;7.33;;;;;;;;6283231;22;47941;-85
2024/02/01 16:43:35;;;;;;;;;9.00;8.00;;;;;;;;6313273;22;45383;-84
2024/02/01 16:46:05;;;;;;;;;5.00;5.00;;;;;;;;6310238;22;45365;-83
2024/02/01 16:48:30;;;;;;;;;5.00;5.00;;;;;;;;6310496;22;45514;-84
2024/02/01 16:53:47;;;;;;;;;8.00;6.67;;;;;;;;6285020;22;44803;-84
2024/02/01 16:58:48;;;;;;;;;9.00;9.00;;;;;;;;6195757;22;46192;-85
2024/02/01 17:01:54;;;;;;;;;8.00;5.67;;;;;;;;6326495;22;46765;-85
2024/02/01 17:04:29;;;;;;;;;10.33;10.00;;;;;;;;6281937;22;45482;-83
2024/02/01 17:07:05;;;;;;;;;13.00;12.33;;;;;;;;6263400;22;45492;-84
2024/02/01 17:17:43;;;;;;;;;11.67;11.33;;;;;;;;6328673;22;45254;-84
2024/02/01 17:20:25;;;;;;;;;14.67;11.00;;;;;;;;6358631;22;44954;-85
2024/02/01 17:25:38;;;;;;;;;18.67;15.00;;;;;;;;6354737;22;44848;-84
2024/02/01 17:28:04;;;;;;;;;10.33;9.00;;;;;;;;6325581;22;44867;-84
2024/02/01 17:30:51;;;;;;;;;15.33;15.33;;;;;;;;6357254;22;44688;-83
2024/02/01 17:33:42;;;;;;;;;17.00;14.67;;;;;;;;6249470;22;45486;-84
2024/02/01 17:36:11;;;;;;;;;15.00;11.00;;;;;;;;6284859;22;44810;-85
2024/02/01 17:38:47;;;;;;;;;12.33;11.33;;;;;;;;6158774;22;46855;-83
2024/02/01 17:46:32;;;;;;;;;9.33;7.33;;;;;;;;6291725;22;44823;-84
2024/02/01 17:51:33;;;;;;;;;6.67;6.67;;;;;;;;6220991;22;46774;-83
2024/02/01 17:56:47;;;;;;;;;11.67;10.67;;;;;;;;6340442;22;44881;-82
2024/02/01 18:07:07;;;;;;;;;9.33;9.00;;;;;;;;6273385;22;45651;-84
2024/02/01 18:14:45;;;;;;;;;12.00;9.67;;;;;;;;6298076;22;46916;-83
2024/02/01 18:24:57;;;;;;;;;11.67;11.67;;;;;;;;6259789;22;46916;-84
2024/02/01 18:27:24;;;;;;;;;15.00;11.67;;;;;;;;6300130;22;45188;-85
2024/02/01 18:29:56;;;;;;;;;11.00;11.00;;;;;;;;6297823;22;44743;-83
2024/02/01 18:32:28;;;;;;;;;12.33;12.33;;;;;;;;6356454;22;44892;-84
2024/02/01 18:37:57;;;;;;;;;10.67;10.00;;;;;;;;6354028;22;45286;-83
2024/02/01 18:45:49;;;;;;;;;22.33;18.67;;;;;;;;6245151;22;46199;-84
2024/02/01 18:54:00;;;;;;;;;21.33;20.33;;;;;;;;6194109;22;44859;-83
2024/02/01 18:56:29;;;;;;;;;22.00;20.67;;;;;;;;6306687;22;45261;-83
2024/02/01 18:58:55;;;;;;;;;23.67;22.33;;;;;;;;6261512;22;45605;-84
2024/02/01 19:01:24;;;;;;;;;23.67;23.33;;;;;;;;6300784;22;44803;-83
2024/02/01 19:03:52;;;;;;;;;25.00;23.33;;;;;;;;6201606;22;45009;-83
2024/02/01 19:06:29;;;;;;;;;30.67;25.67;;;;;;;;6330576;22;45113;-83
2024/02/01 19:08:54;;;;;;;;;29.33;25.33;;;;;;;;6303759;22;44850;-83
2024/02/01 19:11:20;;;;;;;;;26.33;26.00;;;;;;;;6198128;22;44799;-83
2024/02/01 19:14:02;;;;;;;;;30.00;27.67;;;;;;;;6305611;22;44780;-84
2024/02/01 19:16:29;;;;;;;;;29.67;27.00;;;;;;;;6330338;22;46626;-83
2024/02/01 19:18:59;;;;;;;;;29.67;25.00;;;;;;;;6304351;22;45222;-83
2024/02/01 19:21:28;;;;;;;;;27.67;23.33;;;;;;;;6200055;22;44780;-83
2024/02/01 19:23:53;;;;;;;;;27.00;20.67;;;;;;;;6200249;22;44731;-83
2024/02/01 19:29:03;;;;;;;;;26.00;26.00;;;;;;;;6317103;22;44869;-83
2024/02/01 19:31:29;;;;;;;;;34.33;31.67;;;;;;;;6329258;22;44837;-83
2024/02/01 19:34:00;;;;;;;;;29.00;26.33;;;;;;;;6327370;22;45304;-83
2024/02/01 19:36:31;;;;;;;;;36.67;32.00;;;;;;;;6328356;22;45198;-83
2024/02/01 19:39:08;;;;;;;;;27.33;26.00;;;;;;;;6329268;22;44790;-83
2024/02/01 19:41:34;;;;;;;;;29.67;29.67;;;;;;;;6328297;22;44734;-83
2024/02/01 19:43:59;;;;;;;;;32.67;31.67;;;;;;;;6327661;22;45382;-83
2024/02/01 19:46:25;;;;;;;;;38.33;35.33;;;;;;;;6357165;22;44962;-83
2024/02/01 19:48:50;;;;;;;;;36.33;30.33;;;;;;;;6357534;22;45216;-83
2024/02/01 19:51:15;;;;;;;;;36.00;31.00;;;;;;;;6358716;22;45326;-83
2024/02/01 19:53:40;;;;;;;;;32.00;30.33;;;;;;;;6358949;22;44817;-83
2024/02/01 19:56:06;;;;;;;;;29.00;27.00;;;;;;;;6329846;22;47299;-83
2024/02/01 20:01:34;;;;;;;;;30.67;29.67;;;;;;;;6358590;22;44721;-83
2024/02/01 20:04:00;;;;;;;;;35.67;34.33;;;;;;;;6359601;22;44793;-84
2024/02/01 20:06:26;;;;;;;;;35.33;32.00;;;;;;;;6331371;22;47192;-83
2024/02/01 20:08:56;;;;;;;;;33.67;31.00;;;;;;;;6355493;22;44793;-83
2024/02/01 20:11:21;;;;;;;;;27.33;25.33;;;;;;;;6360437;22;45079;-84
2024/02/01 20:13:46;;;;;;;;;33.33;25.67;;;;;;;;6333024;22;45374;-83
2024/02/01 20:16:12;;;;;;;;;34.00;30.67;;;;;;;;6268738;22;46940;-83
2024/02/01 20:18:37;;;;;;;;;30.00;29.00;;;;;;;;6304447;22;44928;-82
2024/02/01 20:21:03;;;;;;;;;26.00;25.33;;;;;;;;6304976;22;44814;-83
2024/02/01 20:23:29;;;;;;;;;29.00;25.67;;;;;;;;6199790;22;44786;-83
2024/02/01 20:25:54;;;;;;;;;23.67;23.67;;;;;;;;6199733;22;45577;-83
2024/02/01 20:28:43;;;;;;;;;25.67;24.33;;;;;;;;6331659;22;45034;-82
2024/02/01 20:31:10;;;;;;;;;23.67;23.33;;;;;;;;6199390;22;44760;-83
2024/02/01 20:33:36;;;;;;;;;24.00;21.67;;;;;;;;6193488;22;44883;-84
2024/02/01 20:36:02;;;;;;;;;28.33;23.00;;;;;;;;6299300;22;46151;-84
2024/02/01 20:38:29;;;;;;;;;22.67;22.33;;;;;;;;6302893;22;45327;-84
2024/02/01 20:40:55;;;;;;;;;24.00;21.67;;;;;;;;6199217;22;44804;-84
2024/02/01 20:43:20;;;;;;;;;20.00;19.33;;;;;;;;6198671;22;44919;-83
2024/02/01 20:45:53;;;;;;;;;19.00;16.00;;;;;;;;6303663;22;47029;-84
2024/02/01 20:48:36;;;;;;;;;26.33;23.00;;;;;;;;6304169;22;44975;-83
2024/02/01 20:51:02;;;;;;;;;24.00;22.00;;;;;;;;6199252;22;45222;-84
2024/02/01 20:53:27;;;;;;;;;23.67;18.33;;;;;;;;6304172;22;45241;-84
2024/02/01 20:55:52;;;;;;;;;22.00;21.00;;;;;;;;6200026;22;46745;-85
2024/02/01 20:58:32;;;;;;;;;21.00;20.33;;;;;;;;6302181;22;45058;-83
2024/02/01 21:00:59;;;;;;;;;21.67;18.33;;;;;;;;6197084;22;45129;-84
2024/02/01 21:03:24;;;;;;;;;22.00;22.00;;;;;;;;6198001;22;44785;-83
2024/02/01 21:05:53;;;;;;;;;21.00;19.33;;;;;;;;6303453;22;47482;-84
2024/02/01 21:08:22;;;;;;;;;26.67;24.00;;;;;;;;6197608;22;44732;-83
2024/02/01 21:10:49;;;;;;;;;27.00;22.33;;;;;;;;6303451;22;44823;-84
2024/02/01 21:13:14;;;;;;;;;27.33;23.00;;;;;;;;6303157;22;44818;-83
2024/02/01 21:15:41;;;;;;;;;24.33;24.00;;;;;;;;6197358;22;45127;-83
2024/02/01 21:18:14;;;;;;;;;28.33;27.00;;;;;;;;6302153;22;44846;-83
2024/02/01 21:20:41;;;;;;;;;21.00;18.33;;;;;;;;6302864;22;44700;-84
2024/02/01 21:23:25;;;;;;;;;25.00;22.67;;;;;;;;6199432;22;44725;-85
2024/02/01 21:25:56;;;;;;;;;23.33;22.33;;;;;;;;6304490;22;47056;-84
2024/02/01 21:28:21;;;;;;;;;25.67;25.67;;;;;;;;6199278;22;44771;-84
2024/02/01 21:30:48;;;;;;;;;25.00;25.00;;;;;;;;6303553;22;44735;-84
2024/02/01 21:33:16;;;;;;;;;24.00;20.00;;;;;;;;6304891;22;44843;-84
2024/02/01 21:35:49;;;;;;;;;24.33;22.00;;;;;;;;6329788;22;47333;-84
2024/02/01 21:38:17;;;;;;;;;22.67;22.67;;;;;;;;6359470;22;44810;-84
2024/02/01 21:40:42;;;;;;;;;25.00;23.00;;;;;;;;6360170;22;45001;-85
2024/02/01 21:43:11;;;;;;;;;23.00;22.00;;;;;;;;6332031;22;44791;-84
2024/02/01 21:45:38;;;;;;;;;22.67;20.33;;;;;;;;6296691;22;47372;-83
2024/02/01 21:48:03;;;;;;;;;24.33;23.33;;;;;;;;6304717;22;44892;-84
2024/02/01 21:50:28;;;;;;;;;28.33;25.00;;;;;;;;6199579;22;44805;-84
2024/02/01 21:52:54;;;;;;;;;28.67;27.67;;;;;;;;6305154;22;44819;-83
2024/02/01 21:55:22;;;;;;;;;28.67;26.33;;;;;;;;6304069;22;47487;-83
2024/02/01 21:57:48;;;;;;;;;25.00;23.33;;;;;;;;6198753;22;44928;-83
2024/02/01 22:00:13;;;;;;;;;27.33;26.33;;;;;;;;6305293;22;45283;-84
2024/02/01 22:02:39;;;;;;;;;29.67;27.33;;;;;;;;6305592;22;44914;-83
2024/02/01 22:07:43;;;;;;;;;29.33;29.33;;;;;;;;6197325;22;45259;-84
2024/02/01 22:10:09;;;;;;;;;35.67;32.33;;;;;;;;6303936;22;44919;-83
2024/02/01 22:12:41;;;;;;;;;30.67;28.67;;;;;;;;6199878;22;45248;-82
2024/02/01 22:15:07;;;;;;;;;34.33;32.00;;;;;;;;6196787;22;45192;-83
2024/02/01 22:17:33;;;;;;;;;32.00;27.33;;;;;;;;6200124;22;44786;-83
2024/02/01 22:19:58;;;;;;;;;29.67;27.67;;;;;;;;6199912;22;44882;-83
2024/02/01 22:22:23;;;;;;;;;34.67;32.00;;;;;;;;6305093;22;45216;-83
2024/02/01 22:24:49;;;;;;;;;32.00;26.33;;;;;;;;6305702;22;46968;-83
2024/02/01 22:27:14;;;;;;;;;29.00;26.00;;;;;;;;6201477;22;45302;-83
2024/02/01 22:29:42;;;;;;;;;25.67;24.00;;;;;;;;6202000;22;44853;-83
2024/02/01 22:32:08;;;;;;;;;24.67;22.00;;;;;;;;6201847;22;45152;-83
2024/02/01 22:34:33;;;;;;;;;29.67;27.33;;;;;;;;6307735;22;46863;-83
2024/02/01 22:36:58;;;;;;;;;29.33;26.33;;;;;;;;6332531;22;44805;-84
2024/02/01 22:39:23;;;;;;;;;26.33;23.67;;;;;;;;6360679;22;44924;-84
2024/02/01 22:41:49;;;;;;;;;29.00;28.00;;;;;;;;6361084;22;44736;-85
2024/02/01 22:44:16;;;;;;;;;37.00;29.00;;;;;;;;6234963;22;46987;-83